createdAt,value
2019-02-24T00:02:12.650Z,103801.71
2019-02-24T00:07:16.339Z,103803.84
2019-02-24T00:12:18.462Z,103800.58
2019-02-24T00:17:23.190Z,103803.71
2019-02-24T00:22:31.583Z,103799.60
2019-02-24T00:27:33.618Z,103798.59
2019-02-24T00:32:35.692Z,103794.73
2019-02-24T00:37:40.415Z,103795.80
2019-02-24T00:42:44.850Z,103797.09
2019-02-24T00:47:49.668Z,103784.86
2019-02-24T00:52:51.919Z,103795.99
2019-02-24T00:57:56.982Z,103799.37
2019-02-24T01:02:59.178Z,103805.03
2019-02-24T01:08:03.051Z,103806.27
2019-02-24T01:13:05.305Z,103803.17
2019-02-24T01:18:09.192Z,103791.19
2019-02-24T01:23:17.882Z,103796.20
2019-02-24T01:28:25.365Z,103797.30
2019-02-24T01:33:28.428Z,103791.92
2019-02-24T01:38:38.186Z,103790.31
2019-02-24T01:43:42.659Z,103795.66
2019-02-24T01:48:44.652Z,103791.86
2019-02-24T01:53:46.878Z,103792.16
2019-02-24T01:58:48.936Z,103791.20
2019-02-24T02:03:56.402Z,103783.22
2019-02-24T02:08:58.470Z,103780.11
2019-02-24T02:14:00.494Z,103776.02
2019-02-24T02:19:02.598Z,103768.23
2019-02-24T02:24:04.680Z,103770.12
2019-02-24T02:29:12.799Z,103759.84
2019-02-24T02:34:17.147Z,103766.45
2019-02-24T02:39:20.834Z,103773.78
2019-02-24T02:44:23.919Z,103780.47
2019-02-24T02:49:25.918Z,103774.63
2019-02-24T02:54:28.170Z,103771.73
2019-02-24T02:59:31.306Z,103776.51
2019-02-24T03:04:33.790Z,103793.66
2019-02-24T03:09:38.395Z,103779.84
2019-02-24T03:14:43.436Z,103792.91
2019-02-24T03:19:47.786Z,103789.45
2019-02-24T03:24:49.887Z,103784.44
2019-02-24T03:29:51.976Z,103780.24
2019-02-24T03:34:54.199Z,103796.09
2019-02-24T03:39:56.266Z,103807.25
2019-02-24T03:44:58.293Z,103819.09
2019-02-24T03:50:00.375Z,103823.65
2019-02-24T03:55:02.846Z,103820.47
2019-02-24T04:00:05.134Z,103822.56
2019-02-24T04:05:07.136Z,103833.27
2019-02-24T04:10:09.159Z,103837.72
2019-02-24T04:15:11.519Z,103839.34
2019-02-24T04:20:19.899Z,103832.64
2019-02-24T04:25:32.422Z,103839.56
2019-02-24T04:30:34.666Z,103838.00
2019-02-24T04:35:37.997Z,103825.13
2019-02-24T04:40:43.229Z,103828.69
2019-02-24T04:45:48.036Z,103830.81
2019-02-24T04:50:50.036Z,103827.13
2019-02-24T04:55:54.905Z,103838.48
2019-02-24T05:00:59.201Z,103840.45
2019-02-24T05:06:05.252Z,103838.23
2019-02-24T05:11:07.283Z,103840.05
2019-02-24T05:16:09.362Z,103836.59
2019-02-24T05:21:15.341Z,103829.52
2019-02-24T05:26:17.396Z,103826.78
2019-02-24T05:31:20.624Z,103834.30
2019-02-24T05:36:27.933Z,103845.66
2019-02-24T05:41:30.104Z,103837.03
2019-02-24T05:46:32.686Z,103839.81
2019-02-24T05:51:37.499Z,103846.68
2019-02-24T05:56:45.319Z,103849.46
2019-02-24T06:01:47.932Z,103849.46
2019-02-24T06:06:51.086Z,103857.45
2019-02-24T06:11:59.129Z,103863.74
2019-02-24T06:17:09.804Z,103875.54
2019-02-24T06:22:12.839Z,103878.62
2019-02-24T06:27:17.362Z,103876.08
2019-02-24T06:32:23.276Z,103886.86
2019-02-24T06:37:26.486Z,103889.83
2019-02-24T06:42:28.526Z,103888.81
2019-02-24T06:47:33.754Z,103891.22
2019-02-24T06:52:37.901Z,103893.70
2019-02-24T06:57:43.378Z,103906.31
2019-02-24T07:02:47.802Z,103894.41
2019-02-24T07:07:50.197Z,103909.23
2019-02-24T07:12:54.546Z,103913.84
2019-02-24T07:17:59.391Z,103916.58
2019-02-24T07:23:05.414Z,103916.57
2019-02-24T07:28:07.452Z,103915.88
2019-02-24T07:33:09.535Z,103924.03
2019-02-24T07:38:20.668Z,103925.55
2019-02-24T07:43:22.786Z,103922.94
2019-02-24T07:48:27.527Z,103921.66
2019-02-24T07:53:29.775Z,103923.84
2019-02-24T07:58:31.943Z,103922.29
2019-02-24T08:03:34.014Z,103908.27
2019-02-24T08:08:38.779Z,103897.93
2019-02-24T08:13:46.230Z,103904.34
2019-02-24T08:18:55.361Z,103913.91
2019-02-24T08:23:59.560Z,103910.30
2019-02-24T08:29:01.583Z,103913.89
2019-02-24T08:34:10.543Z,103909.92
2019-02-24T08:39:13.893Z,103915.81
2019-02-24T08:44:18.458Z,103911.91
2019-02-24T08:49:21.273Z,103921.80
2019-02-24T08:54:25.627Z,103915.85
2019-02-24T08:59:27.661Z,103920.73
2019-02-24T09:04:29.691Z,103920.77
2019-02-24T09:09:31.870Z,103911.23
2019-02-24T09:14:40.205Z,103907.48
2019-02-24T09:19:44.625Z,103901.66
2019-02-24T09:24:46.939Z,103893.87
2019-02-24T09:29:49.122Z,103905.76
2019-02-24T09:34:51.574Z,103915.25
2019-02-24T09:39:55.922Z,103914.49
2019-02-24T09:44:58.245Z,103915.71
2019-02-24T09:50:00.353Z,103916.64
2019-02-24T09:55:04.030Z,103922.52
2019-02-24T10:00:10.892Z,103913.48
2019-02-24T10:05:12.929Z,103907.02
2019-02-24T10:10:17.191Z,103900.52
2019-02-24T10:15:19.226Z,103908.77
2019-02-24T10:20:21.233Z,103916.82
2019-02-24T10:25:23.248Z,103918.59
2019-02-24T10:30:26.491Z,103924.84
2019-02-24T10:35:31.839Z,103938.92
2019-02-24T10:40:34.131Z,103948.17
2019-02-24T10:45:41.082Z,103944.38
2019-02-24T10:50:43.566Z,103948.91
2019-02-24T10:55:50.121Z,103942.94
2019-02-24T11:00:52.187Z,103936.91
2019-02-24T11:05:54.240Z,103942.09
2019-02-24T11:10:56.470Z,103943.98
2019-02-24T11:15:58.479Z,103944.91
2019-02-24T11:21:02.995Z,103949.28
2019-02-24T11:26:05.063Z,103949.58
2019-02-24T11:31:07.206Z,103946.28
2019-02-24T11:36:09.224Z,103946.20
2019-02-24T11:41:11.352Z,103950.47
2019-02-24T11:46:15.326Z,103950.47
2019-02-24T11:51:17.379Z,103955.12
2019-02-24T11:56:19.767Z,103962.55
2019-02-24T12:01:22.069Z,103962.05
2019-02-24T12:06:27.127Z,103973.55
2019-02-24T12:11:29.463Z,103980.58
2019-02-24T12:16:31.581Z,103969.25
2019-02-24T12:21:33.608Z,103966.34
2019-02-24T12:26:38.655Z,103955.84
2019-02-24T12:31:40.742Z,103964.98
2019-02-24T12:36:43.271Z,103956.20
2019-02-24T12:41:45.319Z,103952.98
2019-02-24T12:46:49.902Z,103952.07
2019-02-24T12:51:54.254Z,103942.01
2019-02-24T12:56:56.482Z,103926.92
2019-02-24T13:02:05.518Z,103923.54
2019-02-24T13:07:04.590Z,103919.87
2019-02-24T13:12:06.668Z,103914.86
2019-02-24T13:29:12.375Z,103904.09
2019-02-24T13:34:14.598Z,103907.89
2019-02-24T13:39:16.744Z,103904.48
2019-02-24T13:44:18.812Z,103902.33
2019-02-24T13:49:20.824Z,103893.65
2019-02-24T13:54:23.114Z,103899.12
2019-02-24T13:59:25.279Z,103910.19
2019-02-24T14:04:27.325Z,103906.58
2019-02-24T14:09:29.428Z,103899.07
2019-02-24T14:14:31.558Z,103894.02
2019-02-24T14:19:33.534Z,103888.27
2019-02-24T14:24:37.432Z,103888.23
2019-02-24T14:29:39.538Z,103881.39
2019-02-24T14:34:41.576Z,103876.63
2019-02-24T14:39:43.937Z,103876.23
2019-02-24T14:44:45.963Z,103871.25
2019-02-24T14:49:48.140Z,103880.49
2019-02-24T14:54:56.129Z,103884.47
2019-02-24T14:59:58.279Z,103881.47
2019-02-24T15:05:00.558Z,103874.23
2019-02-24T15:10:03.737Z,103870.87
2019-02-24T15:15:07.385Z,103874.48
2019-02-24T15:20:14.008Z,103862.92
2019-02-24T15:25:16.541Z,103864.08
2019-02-24T15:30:24.459Z,103863.19
2019-02-24T15:35:27.106Z,103865.70
2019-02-24T15:40:31.780Z,103873.92
2019-02-24T15:45:36.447Z,103865.12
2019-02-24T15:50:38.582Z,103865.52
2019-02-24T15:55:40.695Z,103864.73
2019-02-24T16:00:42.719Z,103855.55
2019-02-24T16:05:44.950Z,103852.95
2019-02-24T16:10:47.025Z,103847.14
2019-02-24T16:15:49.198Z,103847.14
2019-02-24T16:20:51.451Z,103852.87
2019-02-24T16:25:53.744Z,103850.50
2019-02-24T16:30:55.752Z,103858.38
2019-02-24T16:35:59.708Z,103856.19
2019-02-24T16:41:01.739Z,103852.30
2019-02-24T16:46:03.820Z,103856.13
2019-02-24T16:51:05.964Z,103855.27
2019-02-24T16:56:08.132Z,103856.15
2019-02-24T17:01:10.710Z,103858.59
2019-02-24T17:06:12.868Z,103858.59
2019-02-24T17:11:14.903Z,103851.89
2019-02-24T17:16:17.282Z,103856.27
2019-02-24T17:21:22.375Z,103855.66
2019-02-24T17:26:24.570Z,103873.53
2019-02-24T17:31:29.414Z,103877.44
2019-02-24T17:36:31.718Z,103879.93
2019-02-24T17:41:33.740Z,103884.78
2019-02-24T17:46:37.095Z,103880.62
2019-02-24T17:51:40.906Z,103893.78
2019-02-24T17:56:43.947Z,103893.28
2019-02-24T18:01:45.954Z,103890.92
2019-02-24T18:06:48.129Z,103885.30
2019-02-24T18:11:50.125Z,103886.92
2019-02-24T18:16:53.783Z,103888.45
2019-02-24T18:21:57.189Z,103886.11
2019-02-24T18:26:59.262Z,103889.02
2019-02-24T18:32:04.047Z,103884.89
2019-02-24T18:37:06.067Z,103893.02
2019-02-24T18:42:08.093Z,103901.19
2019-02-24T18:47:10.109Z,103898.05
2019-02-24T18:52:16.137Z,103901.50
2019-02-24T18:57:18.369Z,103892.32
2019-02-24T19:02:23.432Z,103895.87
2019-02-24T19:07:25.699Z,103896.06
2019-02-24T19:12:27.757Z,103899.77
2019-02-24T19:17:30.967Z,103910.90
2019-02-24T19:22:32.972Z,103908.30
2019-02-24T19:27:37.014Z,103907.35
2019-02-24T19:32:40.260Z,103918.53
2019-02-24T19:37:44.061Z,103917.74
2019-02-24T19:42:46.067Z,103929.58
2019-02-24T19:47:49.515Z,103915.38
2019-02-24T19:52:51.645Z,103917.06
2019-02-24T19:57:56.901Z,103914.89
2019-02-24T20:03:01.115Z,103923.73
2019-02-24T20:08:03.397Z,103928.91
2019-02-24T20:13:05.378Z,103930.03
2019-02-24T20:18:10.084Z,103936.20
2019-02-24T20:23:12.111Z,103945.05
2019-02-24T20:28:14.114Z,103939.86
2019-02-24T20:33:16.195Z,103944.27
2019-02-24T20:38:18.552Z,103961.52
2019-02-24T20:43:20.645Z,103960.59
2019-02-24T20:48:23.293Z,103970.13
2019-02-24T20:53:25.364Z,103981.73
2019-02-24T20:58:29.495Z,103996.99
2019-02-24T21:03:31.600Z,103997.22
2019-02-24T21:08:33.882Z,104005.81
2019-02-24T21:13:35.867Z,103997.41
2019-02-24T21:18:43.930Z,103995.05
2019-02-24T21:23:46.051Z,104009.53
2019-02-24T21:28:49.723Z,103996.37
2019-02-24T21:33:51.754Z,104009.46
2019-02-24T21:38:54.060Z,104010.09
2019-02-24T21:43:58.858Z,104013.33
2019-02-24T21:49:01.634Z,104008.67
2019-02-24T21:54:03.647Z,104011.59
2019-02-24T21:59:06.535Z,104006.04
2019-02-24T22:04:08.654Z,104008.08
2019-02-24T22:09:11.510Z,104005.11
2019-02-24T22:14:15.747Z,104010.13
2019-02-24T22:19:19.222Z,104008.46
2019-02-24T22:24:21.301Z,104009.04
2019-02-24T22:29:23.347Z,104008.06
2019-02-24T22:34:25.366Z,104002.63
2019-02-24T22:39:27.604Z,104017.44
2019-02-24T22:44:32.200Z,104013.25
2019-02-24T22:49:34.436Z,104015.64
2019-02-24T22:54:36.434Z,104011.34
2019-02-24T22:59:38.580Z,104007.39
2019-02-24T23:04:43.388Z,104022.55
2019-02-24T23:09:47.444Z,104010.75
2019-02-24T23:14:50.775Z,104015.11
2019-02-24T23:19:52.981Z,104018.75
2019-02-24T23:24:56.115Z,104017.14
2019-02-24T23:29:59.567Z,104008.50
2019-02-24T23:35:07.197Z,104015.64
2019-02-24T23:40:09.155Z,104016.00
2019-02-24T23:45:11.180Z,104018.02
2019-02-24T23:50:15.051Z,104019.67
2019-02-24T23:55:18.229Z,104013.82
